Time;durP1;ratioP1;P1;durP2;ratioP2;P2;SDS_P1;SDS_P2;PMS_P1;PMS_P2;Temp;Humidity;BMP_temperature;BMP_pressure;BME280_temperature;BME280_humidity;BME280_pressure;Samples;Min_cycle;Max_cycle;Signal;HPM_P1;HPM_P2
2023/04/01 00:00:16;;;;;;;2.00;1.90;;;;;;;;;;4973485;28;20199;-57
2023/04/01 00:02:42;;;;;;;2.00;1.90;;;;;;;;;;4979437;28;20199;-58
2023/04/01 00:05:10;;;;;;;2.00;1.90;;;;;;;;;;4976246;28;20836;-58
2023/04/01 00:07:36;;;;;;;2.00;1.90;;;;;;;;;;4968865;28;20682;-58
2023/04/01 00:10:02;;;;;;;2.10;2.00;;;;;;;;;;4973103;28;22348;-57
2023/04/01 00:12:28;;;;;;;2.10;2.00;;;;;;;;;;4977180;28;20368;-58
2023/04/01 00:14:54;;;;;;;2.10;2.00;;;;;;;;;;4973962;28;20228;-58
2023/04/01 00:17:20;;;;;;;2.20;2.10;;;;;;;;;;4975190;28;20278;-57
2023/04/01 00:19:46;;;;;;;1.97;1.87;;;;;;;;;;4973015;28;20214;-57
2023/04/01 00:22:12;;;;;;;2.10;2.00;;;;;;;;;;4980220;28;20274;-57
2023/04/01 00:24:38;;;;;;;2.10;2.00;;;;;;;;;;4973351;28;20182;-57
2023/04/01 00:27:04;;;;;;;2.07;1.97;;;;;;;;;;4976443;28;20290;-57
2023/04/01 00:29:31;;;;;;;1.93;1.83;;;;;;;;;;4974194;28;20199;-57
2023/04/01 00:31:57;;;;;;;2.10;2.00;;;;;;;;;;4970200;28;20195;-57
2023/04/01 00:34:24;;;;;;;2.10;2.00;;;;;;;;;;4974544;28;20194;-57
2023/04/01 00:36:52;;;;;;;1.90;1.80;;;;;;;;;;4975003;28;20709;-57
2023/04/01 00:39:17;;;;;;;2.00;1.90;;;;;;;;;;4980344;28;20231;-57
2023/04/01 00:41:43;;;;;;;2.10;2.00;;;;;;;;;;4973010;28;20221;-57
2023/04/01 00:44:20;;;;;;;2.10;2.00;;;;;;;;;;4968461;28;20654;-57
2023/04/01 00:46:46;;;;;;;1.70;1.70;;;;;;;;;;4961138;28;20316;-57
2023/04/01 00:49:12;;;;;;;2.10;2.00;;;;;;;;;;4966701;28;20587;-57
2023/04/01 00:51:38;;;;;;;1.90;1.80;;;;;;;;;;4966726;28;20226;-57
2023/04/01 00:54:04;;;;;;;1.90;1.80;;;;;;;;;;4957410;28;20190;-57
2023/04/01 00:56:40;;;;;;;2.00;1.90;;;;;;;;;;4972104;28;20587;-57
2023/04/01 00:59:08;;;;;;;2.13;2.03;;;;;;;;;;4969798;28;20187;-58
2023/04/01 01:01:34;;;;;;;2.17;2.07;;;;;;;;;;4955325;28;20678;-58
2023/04/01 01:04:02;;;;;;;2.27;2.17;;;;;;;;;;4955070;28;20824;-57
2023/04/01 01:06:52;;;;;;;2.13;2.03;;;;;;;;;;4968398;28;20194;-57
2023/04/01 01:09:38;;;;;;;2.10;2.00;;;;;;;;;;4973207;28;20198;-57
2023/04/01 01:12:09;;;;;;;2.10;2.00;;;;;;;;;;4970968;28;20324;-57
2023/04/01 01:14:39;;;;;;;2.00;1.90;;;;;;;;;;4971886;28;20191;-57
2023/04/01 01:17:11;;;;;;;2.13;2.03;;;;;;;;;;4949618;28;20186;-58
2023/04/01 01:19:57;;;;;;;2.10;2.00;;;;;;;;;;4973063;28;20209;-57
2023/04/01 01:22:23;;;;;;;2.00;1.90;;;;;;;;;;4970787;28;20273;-58
2023/04/01 01:24:55;;;;;;;2.00;1.90;;;;;;;;;;4973667;28;20835;-57
2023/04/01 01:27:21;;;;;;;2.00;1.90;;;;;;;;;;4971431;28;20215;-57
2023/04/01 01:29:56;;;;;;;2.00;1.90;;;;;;;;;;4973618;28;20194;-57
2023/04/01 01:32:41;;;;;;;2.10;2.00;;;;;;;;;;4971083;28;20915;-57
2023/04/01 01:35:13;;;;;;;1.90;1.80;;;;;;;;;;4970866;28;20174;-57
2023/04/01 01:37:40;;;;;;;2.17;2.07;;;;;;;;;;4956441;28;20218;-57
2023/04/01 01:40:07;;;;;;;2.17;2.07;;;;;;;;;;4953118;28;20234;-57
2023/04/01 01:42:33;;;;;;;2.20;2.10;;;;;;;;;;4965522;28;20209;-57
2023/04/01 01:44:59;;;;;;;2.20;2.10;;;;;;;;;;4973069;28;20229;-57
2023/04/01 01:47:25;;;;;;;2.10;2.00;;;;;;;;;;4974000;28;20314;-57
2023/04/01 01:49:51;;;;;;;2.30;2.20;;;;;;;;;;4974186;28;20197;-59
2023/04/01 01:52:18;;;;;;;2.00;1.90;;;;;;;;;;4971922;28;20186;-56
2023/04/01 01:54:50;;;;;;;2.10;2.00;;;;;;;;;;4977624;28;20668;-59
2023/04/01 01:57:16;;;;;;;1.90;1.80;;;;;;;;;;4976565;28;20655;-59
2023/04/01 01:59:42;;;;;;;2.10;2.00;;;;;;;;;;4978781;28;20306;-58
2023/04/01 02:02:08;;;;;;;2.30;2.20;;;;;;;;;;4982194;28;20187;-58
2023/04/01 02:04:35;;;;;;;2.20;2.10;;;;;;;;;;4979594;28;20194;-58
2023/04/01 02:07:02;;;;;;;1.60;1.60;;;;;;;;;;4960827;28;20267;-58
2023/04/01 02:09:29;;;;;;;1.80;1.70;;;;;;;;;;4975667;28;20214;-59
2023/04/01 02:12:00;;;;;;;2.10;2.00;;;;;;;;;;4979905;28;20225;-59
2023/04/01 02:14:26;;;;;;;2.03;1.93;;;;;;;;;;4972676;28;20261;-59
2023/04/01 02:16:54;;;;;;;2.23;2.13;;;;;;;;;;4982182;28;20198;-59
2023/04/01 02:19:23;;;;;;;2.20;2.10;;;;;;;;;;4978571;28;20191;-59
2023/04/01 02:21:51;;;;;;;2.30;2.20;;;;;;;;;;4976217;28;20502;-59
2023/04/01 02:24:17;;;;;;;2.10;2.00;;;;;;;;;;4978048;28;20282;-58
2023/04/01 02:26:43;;;;;;;2.33;2.23;;;;;;;;;;4958624;28;20297;-58
2023/04/01 02:29:09;;;;;;;2.40;2.30;;;;;;;;;;4970395;28;20228;-58
2023/04/01 02:31:35;;;;;;;2.23;2.13;;;;;;;;;;4971968;28;20686;-58
2023/04/01 02:34:01;;;;;;;2.10;2.00;;;;;;;;;;4972573;28;20450;-57
2023/04/01 02:36:27;;;;;;;2.40;2.30;;;;;;;;;;4974047;28;20556;-58
2023/04/01 02:38:54;;;;;;;2.70;2.60;;;;;;;;;;4973129;28;20230;-58
2023/04/01 02:41:20;;;;;;;2.60;2.50;;;;;;;;;;4974624;28;20746;-58
2023/04/01 02:43:46;;;;;;;2.60;2.50;;;;;;;;;;4975595;28;20235;-58
2023/04/01 02:46:12;;;;;;;2.67;2.57;;;;;;;;;;4973431;28;20293;-58
2023/04/01 02:48:38;;;;;;;2.50;2.40;;;;;;;;;;4975414;28;20268;-57
2023/04/01 02:51:04;;;;;;;2.40;2.30;;;;;;;;;;4959130;28;20229;-58
2023/04/01 02:53:30;;;;;;;2.40;2.30;;;;;;;;;;4971107;28;20656;-58
2023/04/01 02:55:56;;;;;;;2.83;2.73;;;;;;;;;;4976333;28;20198;-58
2023/04/01 02:58:22;;;;;;;4.03;3.83;;;;;;;;;;4977750;28;20182;-58
2023/04/01 03:00:48;;;;;;;2.47;2.37;;;;;;;;;;4970061;28;21011;-58
2023/04/01 03:03:14;;;;;;;2.63;2.53;;;;;;;;;;4977107;28;20239;-58
2023/04/01 03:05:40;;;;;;;2.33;2.23;;;;;;;;;;4978712;28;20186;-58
2023/04/01 03:08:06;;;;;;;2.20;2.10;;;;;;;;;;4979972;28;20248;-58
2023/04/01 03:10:32;;;;;;;2.00;1.90;;;;;;;;;;4979006;28;20224;-58
2023/04/01 03:12:58;;;;;;;2.00;1.90;;;;;;;;;;4978678;28;20187;-57
2023/04/01 03:15:24;;;;;;;1.90;1.80;;;;;;;;;;4974652;28;20183;-58
2023/04/01 03:17:51;;;;;;;1.60;1.60;;;;;;;;;;4971220;28;20194;-57
2023/04/01 03:20:17;;;;;;;2.30;2.20;;;;;;;;;;4975920;28;20405;-58
2023/04/01 03:22:43;;;;;;;2.10;2.00;;;;;;;;;;4973195;28;20858;-58
2023/04/01 03:25:09;;;;;;;2.00;1.90;;;;;;;;;;4975738;28;20205;-58
2023/04/01 03:27:35;;;;;;;1.80;1.70;;;;;;;;;;4967296;28;20214;-58
2023/04/01 03:30:02;;;;;;;1.90;1.80;;;;;;;;;;4973447;28;20202;-58
2023/04/01 03:32:28;;;;;;;2.10;2.00;;;;;;;;;;4974029;28;20192;-58
2023/04/01 03:34:54;;;;;;;1.90;1.80;;;;;;;;;;4977180;28;20224;-58
2023/04/01 03:37:20;;;;;;;1.90;1.80;;;;;;;;;;4973646;28;21182;-58
2023/04/01 03:39:46;;;;;;;2.10;2.00;;;;;;;;;;4969117;28;20787;-58
2023/04/01 03:42:12;;;;;;;1.90;1.80;;;;;;;;;;4968838;28;20186;-58
2023/04/01 03:44:38;;;;;;;1.60;1.60;;;;;;;;;;4978489;28;20350;-58
2023/04/01 03:47:04;;;;;;;1.67;1.67;;;;;;;;;;4975993;28;21061;-58
2023/04/01 03:49:31;;;;;;;1.90;1.80;;;;;;;;;;4974826;28;20285;-58
2023/04/01 03:51:57;;;;;;;1.60;1.60;;;;;;;;;;4975509;28;20205;-56
2023/04/01 03:54:23;;;;;;;1.80;1.70;;;;;;;;;;4974283;28;20183;-57
2023/04/01 03:56:49;;;;;;;1.90;1.80;;;;;;;;;;4988959;28;20191;-57
2023/04/01 03:59:15;;;;;;;1.90;1.80;;;;;;;;;;4981166;28;20290;-57
2023/04/01 04:01:41;;;;;;;1.67;1.67;;;;;;;;;;4983179;28;20270;-57
2023/04/01 04:04:08;;;;;;;1.77;1.70;;;;;;;;;;4975590;28;20190;-57
2023/04/01 04:06:33;;;;;;;1.80;1.70;;;;;;;;;;4978237;28;20198;-57
2023/04/01 04:08:59;;;;;;;1.53;1.53;;;;;;;;;;4962345;28;20841;-57
2023/04/01 04:11:25;;;;;;;1.60;1.60;;;;;;;;;;4983444;28;20225;-57
2023/04/01 04:13:52;;;;;;;1.40;1.40;;;;;;;;;;4980828;28;20202;-57
2023/04/01 04:16:18;;;;;;;1.60;1.60;;;;;;;;;;4980496;28;20222;-57
2023/04/01 04:18:44;;;;;;;1.50;1.50;;;;;;;;;;4978995;28;20218;-57
2023/04/01 04:21:13;;;;;;;1.97;1.87;;;;;;;;;;4980786;28;20198;-57
2023/04/01 04:23:39;;;;;;;1.83;1.73;;;;;;;;;;4976993;28;20209;-57
2023/04/01 04:26:06;;;;;;;1.70;1.70;;;;;;;;;;4981876;28;20651;-58
2023/04/01 04:28:32;;;;;;;1.80;1.70;;;;;;;;;;4977777;28;20315;-57
2023/04/01 04:30:58;;;;;;;1.87;1.77;;;;;;;;;;4968778;28;20646;-57
2023/04/01 04:33:24;;;;;;;1.60;1.60;;;;;;;;;;4969558;28;20186;-57
2023/04/01 04:35:50;;;;;;;1.90;1.80;;;;;;;;;;4974229;28;22036;-58
2023/04/01 04:38:16;;;;;;;2.20;2.10;;;;;;;;;;4971809;28;20189;-57
2023/04/01 04:40:42;;;;;;;1.70;1.70;;;;;;;;;;4971078;28;20238;-57
2023/04/01 04:43:10;;;;;;;1.90;1.80;;;;;;;;;;4973918;28;20201;-57
2023/04/01 04:45:36;;;;;;;1.60;1.60;;;;;;;;;;4972194;28;20194;-57
2023/04/01 04:48:02;;;;;;;1.90;1.80;;;;;;;;;;4970893;28;20220;-57
2023/04/01 04:50:28;;;;;;;1.80;1.70;;;;;;;;;;4973417;28;20961;-57
2023/04/01 04:52:54;;;;;;;1.60;1.60;;;;;;;;;;4969213;28;20186;-57
2023/04/01 04:55:21;;;;;;;1.60;1.60;;;;;;;;;;4971951;28;20201;-57
2023/04/01 04:57:46;;;;;;;1.60;1.60;;;;;;;;;;4971279;28;20198;-57
2023/04/01 05:00:13;;;;;;;1.60;1.60;;;;;;;;;;4977528;28;20191;-57
2023/04/01 05:02:39;;;;;;;1.70;1.70;;;;;;;;;;4975217;28;20195;-57
2023/04/01 05:05:05;;;;;;;1.60;1.60;;;;;;;;;;4969155;28;20264;-57
2023/04/01 05:07:31;;;;;;;1.50;1.50;;;;;;;;;;4969244;28;22300;-57
2023/04/01 05:09:57;;;;;;;1.50;1.50;;;;;;;;;;4969958;28;20204;-57
2023/04/01 05:12:22;;;;;;;1.60;1.60;;;;;;;;;;4969564;28;20187;-57
2023/04/01 05:14:49;;;;;;;1.50;1.50;;;;;;;;;;4972275;28;20190;-57
2023/04/01 05:17:15;;;;;;;1.70;1.70;;;;;;;;;;4972143;28;20198;-57
2023/04/01 05:19:40;;;;;;;1.80;1.70;;;;;;;;;;4977134;28;20555;-57
2023/04/01 05:22:06;;;;;;;1.80;1.70;;;;;;;;;;4973445;28;20199;-57
2023/04/01 05:24:32;;;;;;;1.70;1.70;;;;;;;;;;4971299;28;20194;-57
2023/04/01 05:26:59;;;;;;;1.97;1.87;;;;;;;;;;4968238;28;20210;-57
2023/04/01 05:29:25;;;;;;;1.90;1.80;;;;;;;;;;4969708;28;20196;-57
2023/04/01 05:31:51;;;;;;;2.07;1.97;;;;;;;;;;4970062;28;20222;-57
2023/04/01 05:34:17;;;;;;;1.80;1.70;;;;;;;;;;4972833;28;20252;-57
2023/04/01 05:36:43;;;;;;;2.10;2.00;;;;;;;;;;4973066;28;21008;-57
2023/04/01 05:39:09;;;;;;;1.70;1.70;;;;;;;;;;4969797;28;20240;-57
2023/04/01 05:41:35;;;;;;;2.17;2.07;;;;;;;;;;4968181;28;20538;-57
2023/04/01 05:44:01;;;;;;;1.50;1.50;;;;;;;;;;4968819;28;20212;-57
2023/04/01 05:46:27;;;;;;;1.90;1.80;;;;;;;;;;4976722;28;20198;-57
2023/04/01 05:48:53;;;;;;;1.60;1.60;;;;;;;;;;4975398;28;20179;-57
2023/04/01 05:51:19;;;;;;;1.60;1.60;;;;;;;;;;4978709;28;20219;-57
2023/04/01 05:53:45;;;;;;;1.60;1.60;;;;;;;;;;4973149;28;20191;-57
2023/04/01 05:56:11;;;;;;;1.90;1.80;;;;;;;;;;4971967;28;20191;-57
2023/04/01 05:58:37;;;;;;;1.60;1.60;;;;;;;;;;4977031;28;20540;-57
2023/04/01 06:01:07;;;;;;;2.10;2.00;;;;;;;;;;4975216;28;20190;-57
2023/04/01 06:03:33;;;;;;;2.00;1.90;;;;;;;;;;4972635;28;20643;-57
2023/04/01 06:06:00;;;;;;;1.80;1.70;;;;;;;;;;4978262;28;20273;-57
2023/04/01 06:08:26;;;;;;;1.70;1.70;;;;;;;;;;4972600;28;20198;-57
2023/04/01 06:10:56;;;;;;;1.80;1.70;;;;;;;;;;4974446;28;20262;-58
2023/04/01 06:13:41;;;;;;;1.80;1.70;;;;;;;;;;4952700;28;20351;-57
2023/04/01 06:16:10;;;;;;;1.60;1.60;;;;;;;;;;4969982;28;20269;-57
2023/04/01 06:18:38;;;;;;;1.50;1.50;;;;;;;;;;4980830;28;20233;-57
2023/04/01 06:21:28;;;;;;;1.80;1.70;;;;;;;;;;4978093;28;20202;-57
2023/04/01 06:23:58;;;;;;;1.70;1.70;;;;;;;;;;4970442;28;20217;-57
2023/04/01 06:26:45;;;;;;;1.60;1.60;;;;;;;;;;4972897;28;20190;-57
2023/04/01 06:29:11;;;;;;;1.70;1.70;;;;;;;;;;4972464;28;20190;-57
2023/04/01 06:31:40;;;;;;;1.50;1.50;;;;;;;;;;4969376;28;20296;-57
2023/04/01 06:34:06;;;;;;;1.60;1.60;;;;;;;;;;4971229;28;20214;-57
2023/04/01 06:36:32;;;;;;;1.80;1.70;;;;;;;;;;4973389;28;20712;-57
2023/04/01 06:39:19;;;;;;;1.60;1.60;;;;;;;;;;4969204;28;20258;-57
2023/04/01 06:41:45;;;;;;;1.50;1.50;;;;;;;;;;4972429;28;20190;-57
2023/04/01 06:44:21;;;;;;;1.60;1.60;;;;;;;;;;4972257;28;20762;-57
2023/04/01 06:46:48;;;;;;;1.83;1.73;;;;;;;;;;4961047;28;20273;-57
2023/04/01 06:49:20;;;;;;;1.67;1.67;;;;;;;;;;4956611;28;20655;-57
2023/04/01 06:51:49;;;;;;;1.70;1.70;;;;;;;;;;4977017;28;20261;-57
2023/04/01 06:54:19;;;;;;;1.60;1.60;;;;;;;;;;4970446;28;20959;-57
2023/04/01 06:56:49;;;;;;;1.40;1.40;;;;;;;;;;4980454;28;20711;-57
2023/04/01 06:59:18;;;;;;;1.40;1.40;;;;;;;;;;4973860;28;20190;-57
2023/04/01 07:01:51;;;;;;;1.77;1.70;;;;;;;;;;4959570;28;20213;-57
2023/04/01 07:04:20;;;;;;;1.50;1.50;;;;;;;;;;4974474;28;20198;-58
2023/04/01 07:06:51;;;;;;;1.30;1.30;;;;;;;;;;4975701;28;20656;-58
2023/04/01 07:09:19;;;;;;;1.40;1.40;;;;;;;;;;4975027;28;20176;-57
2023/04/01 07:11:45;;;;;;;1.40;1.40;;;;;;;;;;4956377;28;20226;-57
2023/04/01 07:14:14;;;;;;;1.50;1.50;;;;;;;;;;4977155;28;20555;-57
2023/04/01 07:16:41;;;;;;;1.50;1.50;;;;;;;;;;4976012;28;20195;-58
2023/04/01 07:19:13;;;;;;;1.50;1.50;;;;;;;;;;4965826;28;20187;-57
2023/04/01 07:21:43;;;;;;;1.67;1.67;;;;;;;;;;4974192;28;20707;-57
2023/04/01 07:24:15;;;;;;;1.60;1.60;;;;;;;;;;4976307;28;20224;-57
2023/04/01 07:26:41;;;;;;;1.80;1.70;;;;;;;;;;4966412;28;20198;-57
2023/04/01 07:29:11;;;;;;;1.47;1.47;;;;;;;;;;4974268;28;20816;-56
2023/04/01 07:31:43;;;;;;;1.93;1.83;;;;;;;;;;4976544;28;20218;-57
2023/04/01 07:34:19;;;;;;;1.90;1.80;;;;;;;;;;4975603;28;20699;-57
2023/04/01 07:36:46;;;;;;;1.50;1.50;;;;;;;;;;4965107;28;21171;-56
2023/04/01 07:39:21;;;;;;;1.50;1.50;;;;;;;;;;4955121;28;20237;-57
2023/04/01 07:41:57;;;;;;;1.60;1.60;;;;;;;;;;4959740;28;20207;-57
2023/04/01 07:44:28;;;;;;;1.60;1.60;;;;;;;;;;4959142;28;20199;-57
2023/04/01 07:47:10;;;;;;;1.40;1.40;;;;;;;;;;4959192;28;20273;-57
2023/04/01 07:49:36;;;;;;;1.60;1.60;;;;;;;;;;4958546;28;20282;-57
2023/04/01 07:52:05;;;;;;;1.60;1.60;;;;;;;;;;4957334;28;20221;-58
2023/04/01 07:54:49;;;;;;;1.50;1.50;;;;;;;;;;4956471;28;20194;-57
2023/04/01 07:57:20;;;;;;;1.70;1.70;;;;;;;;;;4953845;28;20648;-57
2023/04/01 07:59:50;;;;;;;1.40;1.40;;;;;;;;;;4956016;28;20191;-57
2023/04/01 08:02:29;;;;;;;1.50;1.50;;;;;;;;;;4960424;28;20905;-56
2023/04/01 08:04:56;;;;;;;1.83;1.73;;;;;;;;;;4937037;28;25049;-56
2023/04/01 08:07:40;;;;;;;1.73;1.70;;;;;;;;;;4955293;28;20200;-56
2023/04/01 08:10:19;;;;;;;1.47;1.47;;;;;;;;;;4955863;28;20219;-57
2023/04/01 08:12:52;;;;;;;1.60;1.60;;;;;;;;;;4963037;28;20191;-58
2023/04/01 08:15:21;;;;;;;1.60;1.60;;;;;;;;;;4962429;28;20225;-57
2023/04/01 08:17:54;;;;;;;1.50;1.50;;;;;;;;;;4966271;28;20191;-57
2023/04/01 08:20:29;;;;;;;1.60;1.60;;;;;;;;;;4958235;28;20202;-57
2023/04/01 08:23:11;;;;;;;1.30;1.30;;;;;;;;;;4948665;28;20266;-60
2023/04/01 08:25:38;;;;;;;1.80;1.70;;;;;;;;;;4953681;28;20222;-57
2023/04/01 08:28:07;;;;;;;1.50;1.50;;;;;;;;;;4951442;28;20190;-57
2023/04/01 08:30:40;;;;;;;1.67;1.67;;;;;;;;;;4953790;28;20210;-57
2023/04/01 08:33:12;;;;;;;1.90;1.80;;;;;;;;;;4958575;28;20176;-59
2023/04/01 08:35:38;;;;;;;2.10;2.00;;;;;;;;;;4957200;28;20660;-58
2023/04/01 08:38:28;;;;;;;1.93;1.83;;;;;;;;;;4946637;28;20191;-58
2023/04/01 08:41:12;;;;;;;2.03;1.93;;;;;;;;;;4941421;28;20246;-58
2023/04/01 08:43:38;;;;;;;1.97;1.87;;;;;;;;;;4951945;28;20206;-57
2023/04/01 08:46:22;;;;;;;1.90;1.80;;;;;;;;;;4957603;28;20203;-57
2023/04/01 08:49:06;;;;;;;1.80;1.70;;;;;;;;;;4958620;28;20203;-57
2023/04/01 08:51:32;;;;;;;2.20;2.10;;;;;;;;;;4960289;28;21165;-57
2023/04/01 08:54:13;;;;;;;2.00;1.90;;;;;;;;;;4960159;28;20195;-57
2023/04/01 08:56:43;;;;;;;2.10;2.00;;;;;;;;;;4959508;28;20726;-57
2023/04/01 08:59:30;;;;;;;1.90;1.80;;;;;;;;;;4954919;28;20268;-56
2023/04/01 09:02:15;;;;;;;1.90;1.80;;;;;;;;;;4934277;28;20272;-56
2023/04/01 09:04:56;;;;;;;1.70;1.70;;;;;;;;;;4931374;28;20339;-57
2023/04/01 09:07:22;;;;;;;1.90;1.80;;;;;;;;;;4934306;28;20195;-56
2023/04/01 09:10:07;;;;;;;1.70;1.70;;;;;;;;;;4945383;28;20202;-56
2023/04/01 09:12:36;;;;;;;1.70;1.70;;;;;;;;;;4953159;28;20199;-56
2023/04/01 09:15:02;;;;;;;1.60;1.60;;;;;;;;;;4948132;28;20195;-56
2023/04/01 09:17:30;;;;;;;1.70;1.70;;;;;;;;;;4947713;28;20205;-57
2023/04/01 09:20:29;;;;;;;2.20;2.10;;;;;;;;;;4962731;28;20196;-56
2023/04/01 09:23:18;;;;;;;1.83;1.73;;;;;;;;;;4943950;28;20660;-56
2023/04/01 09:26:03;;;;;;;1.73;1.70;;;;;;;;;;4956531;28;20668;-56
2023/04/01 09:28:30;;;;;;;1.80;1.70;;;;;;;;;;4956933;28;20679;-56
2023/04/01 09:31:04;;;;;;;2.00;1.90;;;;;;;;;;4960739;28;20195;-56
2023/04/01 09:33:43;;;;;;;1.50;1.50;;;;;;;;;;4959954;28;20661;-56
2023/04/01 09:36:32;;;;;;;1.73;1.70;;;;;;;;;;4953343;28;20271;-57
2023/04/01 09:38:59;;;;;;;1.90;1.80;;;;;;;;;;4956952;28;20235;-57
2023/04/01 09:41:28;;;;;;;1.90;1.80;;;;;;;;;;4973713;28;20194;-57
2023/04/01 09:43:58;;;;;;;2.00;1.90;;;;;;;;;;4976715;28;20282;-57
2023/04/01 09:46:29;;;;;;;1.80;1.70;;;;;;;;;;4976821;28;20179;-57
2023/04/01 09:49:13;;;;;;;2.00;1.90;;;;;;;;;;4973645;28;20190;-57
2023/04/01 09:51:45;;;;;;;2.00;1.90;;;;;;;;;;4968730;28;20812;-57
2023/04/01 09:54:18;;;;;;;1.90;1.80;;;;;;;;;;4975306;28;20233;-59
2023/04/01 09:57:03;;;;;;;2.10;2.00;;;;;;;;;;4972321;28;20187;-58
2023/04/01 09:59:33;;;;;;;2.00;1.90;;;;;;;;;;4977666;28;20194;-58
2023/04/01 10:02:18;;;;;;;2.10;2.00;;;;;;;;;;4974289;28;20194;-57
2023/04/01 10:04:52;;;;;;;2.20;2.10;;;;;;;;;;4979560;28;20253;-57
2023/04/01 10:07:18;;;;;;;2.10;2.00;;;;;;;;;;4975169;28;20728;-58
2023/04/01 10:09:47;;;;;;;2.10;2.00;;;;;;;;;;4977457;28;20186;-58
2023/04/01 10:12:37;;;;;;;2.10;2.00;;;;;;;;;;4978214;28;20207;-58
2023/04/01 10:15:22;;;;;;;1.60;1.60;;;;;;;;;;4974211;28;20191;-56
2023/04/01 10:17:48;;;;;;;2.00;1.90;;;;;;;;;;4976510;28;20241;-56
2023/04/01 10:20:30;;;;;;;1.80;1.70;;;;;;;;;;4978141;28;20840;-57
2023/04/01 10:23:15;;;;;;;1.90;1.80;;;;;;;;;;4963006;28;20297;-57
2023/04/01 10:25:54;;;;;;;2.10;2.00;;;;;;;;;;4975639;28;20191;-58
2023/04/01 10:28:23;;;;;;;1.90;1.80;;;;;;;;;;4968509;28;20244;-58
2023/04/01 10:30:55;;;;;;;2.20;2.10;;;;;;;;;;4974708;28;20216;-57
2023/04/01 10:33:40;;;;;;;2.10;2.00;;;;;;;;;;4971165;28;20273;-57
2023/04/01 10:36:11;;;;;;;2.10;2.00;;;;;;;;;;4975996;28;20194;-57
2023/04/01 10:38:40;;;;;;;2.33;2.23;;;;;;;;;;4971277;28;20195;-57
2023/04/01 10:41:10;;;;;;;2.20;2.10;;;;;;;;;;4971157;28;20199;-57
2023/04/01 10:43:46;;;;;;;2.27;2.17;;;;;;;;;;4951747;28;20304;-57
2023/04/01 10:46:32;;;;;;;1.90;1.80;;;;;;;;;;4960809;28;20198;-58
2023/04/01 10:49:18;;;;;;;1.90;1.80;;;;;;;;;;4963220;28;20210;-58
2023/04/01 10:51:45;;;;;;;1.90;1.80;;;;;;;;;;4937527;28;20345;-58
2023/04/01 10:54:11;;;;;;;1.50;1.50;;;;;;;;;;4963814;28;20277;-58
2023/04/01 10:56:45;;;;;;;1.33;1.33;;;;;;;;;;4968474;28;20262;-58
2023/04/01 10:59:30;;;;;;;1.50;1.50;;;;;;;;;;4965302;28;20193;-58
2023/04/01 11:02:08;;;;;;;1.40;1.40;;;;;;;;;;4973211;28;20937;-58
2023/04/01 11:04:53;;;;;;;1.30;1.30;;;;;;;;;;4964078;28;20280;-58
2023/04/01 11:07:22;;;;;;;1.40;1.40;;;;;;;;;;4974843;28;20182;-58
2023/04/01 11:10:09;;;;;;;1.37;1.37;;;;;;;;;;4966073;28;20246;-56
2023/04/01 11:12:55;;;;;;;1.57;1.57;;;;;;;;;;4972922;28;20289;-58
2023/04/01 11:15:41;;;;;;;1.70;1.70;;;;;;;;;;4928476;28;20579;-56
2023/04/01 11:18:16;;;;;;;1.50;1.50;;;;;;;;;;4977429;28;20325;-58
2023/04/01 11:21:12;;;;;;;2.30;2.20;;;;;;;;;;4962313;28;20182;-58
2023/04/01 11:23:38;;;;;;;2.10;2.00;;;;;;;;;;4970146;28;20241;-58
2023/04/01 11:26:22;;;;;;;2.30;2.20;;;;;;;;;;4978464;28;20221;-58
2023/04/01 11:28:55;;;;;;;2.10;2.00;;;;;;;;;;4977236;28;20199;-58
2023/04/01 11:31:40;;;;;;;2.33;2.23;;;;;;;;;;4953349;28;20222;-58
2023/04/01 11:34:06;;;;;;;2.40;2.30;;;;;;;;;;4975073;28;20353;-58
2023/04/01 11:36:41;;;;;;;1.30;1.30;;;;;;;;;;4973166;28;20289;-57
2023/04/01 11:39:26;;;;;;;1.33;1.33;;;;;;;;;;4979344;28;20221;-58
2023/04/01 11:41:52;;;;;;;0.90;0.90;;;;;;;;;;4979983;28;20602;-58
2023/04/01 11:44:22;;;;;;;0.80;0.80;;;;;;;;;;4972202;28;20198;-58
2023/04/01 11:47:01;;;;;;;0.80;0.80;;;;;;;;;;4975826;28;20282;-57
2023/04/01 11:49:34;;;;;;;0.70;0.70;;;;;;;;;;4961841;28;20209;-58
2023/04/01 11:52:09;;;;;;;0.90;0.90;;;;;;;;;;4960034;28;20216;-58
2023/04/01 11:54:40;;;;;;;0.70;0.70;;;;;;;;;;4973369;28;20304;-63
2023/04/01 11:57:10;;;;;;;0.90;0.90;;;;;;;;;;4975734;28;20675;-60
2023/04/01 11:59:43;;;;;;;0.70;0.70;;;;;;;;;;4974471;28;20206;-58
2023/04/01 12:02:26;;;;;;;0.70;0.70;;;;;;;;;;4970386;28;20663;-58
2023/04/01 12:04:58;;;;;;;1.10;1.10;;;;;;;;;;4974380;28;20707;-58
2023/04/01 12:07:43;;;;;;;0.90;0.90;;;;;;;;;;4963481;28;20569;-58
2023/04/01 12:10:18;;;;;;;0.80;0.80;;;;;;;;;;4975032;28;20217;-58
2023/04/01 12:12:49;;;;;;;0.80;0.80;;;;;;;;;;4967806;28;20252;-58
2023/04/01 12:15:28;;;;;;;0.70;0.70;;;;;;;;;;4954533;28;20202;-58
2023/04/01 12:17:57;;;;;;;0.80;0.80;;;;;;;;;;4964432;28;22060;-59
2023/04/01 12:20:46;;;;;;;0.70;0.70;;;;;;;;;;4966123;28;20523;-57
2023/04/01 12:23:12;;;;;;;0.87;0.87;;;;;;;;;;4970852;28;20225;-58
2023/04/01 12:25:48;;;;;;;0.70;0.70;;;;;;;;;;4983002;28;20659;-58
2023/04/01 12:28:40;;;;;;;0.80;0.80;;;;;;;;;;4969217;28;20916;-58
2023/04/01 12:31:24;;;;;;;0.70;0.70;;;;;;;;;;4958967;28;20237;-59
2023/04/01 12:34:09;;;;;;;0.80;0.80;;;;;;;;;;4967015;28;20193;-60
2023/04/01 12:36:41;;;;;;;0.90;0.90;;;;;;;;;;4952732;28;20202;-59
2023/04/01 12:39:22;;;;;;;0.70;0.70;;;;;;;;;;4947192;28;20298;-58
2023/04/01 12:42:06;;;;;;;0.93;0.93;;;;;;;;;;4951196;28;20187;-58
2023/04/01 12:44:44;;;;;;;1.00;1.00;;;;;;;;;;4948095;28;20202;-59
2023/04/01 12:47:17;;;;;;;0.70;0.70;;;;;;;;;;4953579;28;20219;-59
2023/04/01 12:49:55;;;;;;;0.70;0.70;;;;;;;;;;4951357;28;20183;-58
2023/04/01 12:52:38;;;;;;;0.70;0.70;;;;;;;;;;4946594;28;20214;-60
2023/04/01 12:55:18;;;;;;;1.20;1.20;;;;;;;;;;4946824;28;20206;-59
2023/04/01 12:57:47;;;;;;;1.00;1.00;;;;;;;;;;4947039;28;20190;-58
2023/04/01 13:00:25;;;;;;;1.30;1.30;;;;;;;;;;4945416;28;20187;-58
2023/04/01 13:02:51;;;;;;;5.87;5.57;;;;;;;;;;4946150;28;20294;-58
2023/04/01 13:05:17;;;;;;;5.23;5.03;;;;;;;;;;4953117;28;20199;-58
2023/04/01 13:07:43;;;;;;;6.53;6.23;;;;;;;;;;4948841;28;20195;-58
2023/04/01 13:10:28;;;;;;;8.70;8.30;;;;;;;;;;4948375;28;20586;-58
2023/04/01 13:12:58;;;;;;;14.60;13.80;;;;;;;;;;4946209;28;20250;-58
2023/04/01 13:15:36;;;;;;;0.70;0.70;;;;;;;;;;4944398;28;21021;-58
2023/04/01 13:18:08;;;;;;;0.70;0.70;;;;;;;;;;4955758;28;20642;-58
2023/04/01 13:20:42;;;;;;;0.70;0.70;;;;;;;;;;4950917;28;20192;-58
2023/04/01 13:23:27;;;;;;;0.90;0.90;;;;;;;;;;4952666;28;20262;-58
2023/04/01 13:26:01;;;;;;;0.90;0.90;;;;;;;;;;4944431;28;20605;-58
2023/04/01 13:28:29;;;;;;;0.90;0.90;;;;;;;;;;4940589;28;20199;-59
2023/04/01 13:30:58;;;;;;;0.90;0.90;;;;;;;;;;4956567;28;20218;-59
2023/04/01 13:33:33;;;;;;;0.90;0.90;;;;;;;;;;4957344;28;20237;-59
2023/04/01 13:35:58;;;;;;;4.10;3.90;;;;;;;;;;4951845;28;20203;-59
2023/04/01 13:38:31;;;;;;;0.70;0.70;;;;;;;;;;4954666;28;20187;-59
2023/04/01 13:41:15;;;;;;;1.07;1.07;;;;;;;;;;4953037;28;20937;-59
2023/04/01 13:43:46;;;;;;;1.00;1.00;;;;;;;;;;4958672;28;20198;-59
2023/04/01 13:46:31;;;;;;;0.90;0.90;;;;;;;;;;4951702;28;20210;-59
2023/04/01 13:48:59;;;;;;;0.70;0.70;;;;;;;;;;4951602;28;20225;-58
2023/04/01 13:51:40;;;;;;;0.90;0.90;;;;;;;;;;4954205;28;20245;-59
2023/04/01 13:54:15;;;;;;;0.90;0.90;;;;;;;;;;4953488;28;20281;-59
2023/04/01 13:56:43;;;;;;;0.80;0.80;;;;;;;;;;4954513;28;20782;-59
2023/04/01 13:59:09;;;;;;;0.80;0.80;;;;;;;;;;4953442;28;20676;-58
2023/04/01 14:01:35;;;;;;;0.90;0.90;;;;;;;;;;4958577;28;20206;-59
2023/04/01 14:04:13;;;;;;;1.50;1.50;;;;;;;;;;4956788;28;20280;-58
2023/04/01 14:06:55;;;;;;;1.40;1.40;;;;;;;;;;4953486;28;20741;-58
2023/04/01 14:09:26;;;;;;;1.40;1.40;;;;;;;;;;4955910;28;20661;-59
2023/04/01 14:12:05;;;;;;;1.60;1.60;;;;;;;;;;4960090;28;20561;-57
2023/04/01 14:14:49;;;;;;;1.73;1.70;;;;;;;;;;4958042;28;21167;-57
2023/04/01 14:17:15;;;;;;;1.70;1.70;;;;;;;;;;4954171;28;20279;-58
2023/04/01 14:19:46;;;;;;;1.60;1.60;;;;;;;;;;4955376;28;20614;-58
2023/04/01 14:22:18;;;;;;;1.50;1.50;;;;;;;;;;4961904;28;20199;-58
2023/04/01 14:24:59;;;;;;;1.20;1.20;;;;;;;;;;4956044;28;20199;-58
2023/04/01 14:27:37;;;;;;;1.20;1.20;;;;;;;;;;4958912;28;20194;-57
2023/04/01 14:30:13;;;;;;;1.20;1.20;;;;;;;;;;4956819;28;20191;-57
2023/04/01 14:32:57;;;;;;;1.20;1.20;;;;;;;;;;4957567;28;20241;-57
2023/04/01 14:35:25;;;;;;;1.30;1.30;;;;;;;;;;4959586;28;20194;-57
2023/04/01 14:38:10;;;;;;;1.20;1.20;;;;;;;;;;4959104;28;20183;-57
2023/04/01 14:40:55;;;;;;;1.30;1.30;;;;;;;;;;4975764;28;20261;-57
2023/04/01 14:43:39;;;;;;;1.30;1.30;;;;;;;;;;4980278;28;20187;-57
2023/04/01 14:46:24;;;;;;;1.43;1.43;;;;;;;;;;4981413;28;20194;-57
2023/04/01 14:48:52;;;;;;;1.90;1.80;;;;;;;;;;4977950;28;20884;-59
2023/04/01 14:51:40;;;;;;;1.37;1.37;;;;;;;;;;4975358;28;20207;-58
2023/04/01 14:54:11;;;;;;;1.10;1.10;;;;;;;;;;4977051;28;20241;-58
2023/04/01 14:56:41;;;;;;;1.10;1.10;;;;;;;;;;4975328;28;20298;-60
2023/04/01 14:59:09;;;;;;;1.23;1.23;;;;;;;;;;4965938;28;20197;-60
2023/04/01 15:01:54;;;;;;;1.27;1.27;;;;;;;;;;4955135;28;20723;-60
2023/04/01 15:04:42;;;;;;;1.30;1.30;;;;;;;;;;4973788;28;20217;-64
2023/04/01 15:07:41;;;;;;;1.30;1.30;;;;;;;;;;4974379;28;20195;-60
2023/04/01 15:10:27;;;;;;;1.30;1.30;;;;;;;;;;4920715;28;20210;-60